sensor_id;sensor_type;location;lat;lon;timestamp;P1;durP1;ratioP1;P2;durP2;ratioP2
17382;SDS011;8809;51.892;8.384;2024-01-27T00:00:26;19.70;;;5.43;;
17382;SDS011;8809;51.892;8.384;2024-01-27T00:02:55;14.13;;;4.65;;
17382;SDS011;8809;51.892;8.384;2024-01-27T00:05:22;21.70;;;5.05;;
17382;SDS011;8809;51.892;8.384;2024-01-27T00:07:49;22.17;;;4.32;;
17382;SDS011;8809;51.892;8.384;2024-01-27T00:10:16;13.73;;;3.90;;
17382;SDS011;8809;51.892;8.384;2024-01-27T00:12:43;17.38;;;5.25;;
17382;SDS011;8809;51.892;8.384;2024-01-27T00:15:10;22.55;;;4.28;;
17382;SDS011;8809;51.892;8.384;2024-01-27T00:17:37;18.13;;;3.42;;
17382;SDS011;8809;51.892;8.384;2024-01-27T00:20:07;13.32;;;3.55;;
17382;SDS011;8809;51.892;8.384;2024-01-27T00:22:34;11.63;;;3.83;;
17382;SDS011;8809;51.892;8.384;2024-01-27T00:25:01;16.25;;;4.20;;
17382;SDS011;8809;51.892;8.384;2024-01-27T00:27:28;17.67;;;3.97;;
17382;SDS011;8809;51.892;8.384;2024-01-27T00:29:57;16.17;;;4.13;;
17382;SDS011;8809;51.892;8.384;2024-01-27T00:32:24;14.63;;;4.07;;
17382;SDS011;8809;51.892;8.384;2024-01-27T00:34:51;15.18;;;4.10;;
17382;SDS011;8809;51.892;8.384;2024-01-27T00:37:19;14.70;;;3.47;;
17382;SDS011;8809;51.892;8.384;2024-01-27T00:39:46;13.23;;;3.55;;
17382;SDS011;8809;51.892;8.384;2024-01-27T00:42:14;17.88;;;4.18;;
17382;SDS011;8809;51.892;8.384;2024-01-27T00:44:41;14.80;;;4.63;;
17382;SDS011;8809;51.892;8.384;2024-01-27T00:47:08;12.38;;;3.67;;
17382;SDS011;8809;51.892;8.384;2024-01-27T00:49:35;20.08;;;3.72;;
17382;SDS011;8809;51.892;8.384;2024-01-27T00:52:03;15.85;;;4.22;;
17382;SDS011;8809;51.892;8.384;2024-01-27T00:54:31;15.10;;;4.18;;
17382;SDS011;8809;51.892;8.384;2024-01-27T00:56:58;24.90;;;4.57;;
17382;SDS011;8809;51.892;8.384;2024-01-27T00:59:25;16.40;;;3.88;;
17382;SDS011;8809;51.892;8.384;2024-01-27T01:01:52;15.88;;;4.20;;
17382;SDS011;8809;51.892;8.384;2024-01-27T01:04:20;13.80;;;4.00;;
17382;SDS011;8809;51.892;8.384;2024-01-27T01:06:47;14.65;;;3.58;;
17382;SDS011;8809;51.892;8.384;2024-01-27T01:09:14;19.20;;;4.00;;
17382;SDS011;8809;51.892;8.384;2024-01-27T01:11:43;17.67;;;4.07;;
17382;SDS011;8809;51.892;8.384;2024-01-27T01:14:10;13.02;;;3.60;;
17382;SDS011;8809;51.892;8.384;2024-01-27T01:16:37;23.58;;;4.60;;
17382;SDS011;8809;51.892;8.384;2024-01-27T01:19:04;17.17;;;4.05;;
17382;SDS011;8809;51.892;8.384;2024-01-27T01:21:31;13.27;;;3.50;;
17382;SDS011;8809;51.892;8.384;2024-01-27T01:23:58;14.77;;;3.72;;
17382;SDS011;8809;51.892;8.384;2024-01-27T01:26:25;18.20;;;4.70;;
17382;SDS011;8809;51.892;8.384;2024-01-27T01:28:53;16.50;;;4.20;;
17382;SDS011;8809;51.892;8.384;2024-01-27T01:31:20;12.27;;;3.67;;
17382;SDS011;8809;51.892;8.384;2024-01-27T01:33:47;17.55;;;4.50;;
17382;SDS011;8809;51.892;8.384;2024-01-27T01:36:15;17.55;;;3.63;;
17382;SDS011;8809;51.892;8.384;2024-01-27T01:38:42;10.93;;;3.97;;
17382;SDS011;8809;51.892;8.384;2024-01-27T01:41:10;12.45;;;3.35;;
17382;SDS011;8809;51.892;8.384;2024-01-27T01:43:37;15.18;;;3.72;;
17382;SDS011;8809;51.892;8.384;2024-01-27T01:46:05;14.13;;;3.85;;
17382;SDS011;8809;51.892;8.384;2024-01-27T01:48:32;14.18;;;4.20;;
17382;SDS011;8809;51.892;8.384;2024-01-27T01:51:00;11.43;;;4.10;;
17382;SDS011;8809;51.892;8.384;2024-01-27T01:53:27;18.00;;;4.35;;
17382;SDS011;8809;51.892;8.384;2024-01-27T01:55:54;17.02;;;4.20;;
17382;SDS011;8809;51.892;8.384;2024-01-27T01:58:22;12.40;;;3.55;;
17382;SDS011;8809;51.892;8.384;2024-01-27T02:00:49;14.50;;;4.22;;
17382;SDS011;8809;51.892;8.384;2024-01-27T02:03:17;19.33;;;4.50;;
17382;SDS011;8809;51.892;8.384;2024-01-27T02:05:44;14.18;;;3.90;;
17382;SDS011;8809;51.892;8.384;2024-01-27T02:08:12;14.25;;;3.85;;
17382;SDS011;8809;51.892;8.384;2024-01-27T02:10:39;20.00;;;4.03;;
17382;SDS011;8809;51.892;8.384;2024-01-27T02:13:15;17.30;;;4.15;;
17382;SDS011;8809;51.892;8.384;2024-01-27T02:15:43;14.38;;;4.35;;
17382;SDS011;8809;51.892;8.384;2024-01-27T02:18:10;14.07;;;3.83;;
17382;SDS011;8809;51.892;8.384;2024-01-27T02:20:39;13.10;;;4.00;;
17382;SDS011;8809;51.892;8.384;2024-01-27T02:23:06;16.08;;;3.83;;
17382;SDS011;8809;51.892;8.384;2024-01-27T02:25:34;15.40;;;3.97;;
17382;SDS011;8809;51.892;8.384;2024-01-27T02:28:02;16.70;;;4.35;;
17382;SDS011;8809;51.892;8.384;2024-01-27T02:30:29;19.17;;;4.82;;
17382;SDS011;8809;51.892;8.384;2024-01-27T02:32:57;9.02;;;3.65;;
17382;SDS011;8809;51.892;8.384;2024-01-27T02:35:24;12.77;;;4.20;;
17382;SDS011;8809;51.892;8.384;2024-01-27T02:37:51;11.35;;;3.70;;
17382;SDS011;8809;51.892;8.384;2024-01-27T02:40:19;12.20;;;3.80;;
17382;SDS011;8809;51.892;8.384;2024-01-27T02:42:47;8.55;;;3.60;;
17382;SDS011;8809;51.892;8.384;2024-01-27T02:45:14;14.52;;;4.30;;
17382;SDS011;8809;51.892;8.384;2024-01-27T02:47:41;15.68;;;3.95;;
17382;SDS011;8809;51.892;8.384;2024-01-27T02:50:09;12.93;;;4.35;;
17382;SDS011;8809;51.892;8.384;2024-01-27T02:52:36;15.18;;;4.32;;
17382;SDS011;8809;51.892;8.384;2024-01-27T02:55:03;19.83;;;4.95;;
17382;SDS011;8809;51.892;8.384;2024-01-27T02:57:30;17.25;;;4.40;;
17382;SDS011;8809;51.892;8.384;2024-01-27T02:59:59;12.05;;;3.80;;
17382;SDS011;8809;51.892;8.384;2024-01-27T03:02:26;9.35;;;3.83;;
17382;SDS011;8809;51.892;8.384;2024-01-27T03:04:53;14.00;;;5.57;;
17382;SDS011;8809;51.892;8.384;2024-01-27T03:07:20;15.45;;;4.20;;
17382;SDS011;8809;51.892;8.384;2024-01-27T03:09:47;13.65;;;4.40;;
17382;SDS011;8809;51.892;8.384;2024-01-27T03:12:14;12.70;;;4.80;;
17382;SDS011;8809;51.892;8.384;2024-01-27T03:14:43;10.98;;;4.30;;
17382;SDS011;8809;51.892;8.384;2024-01-27T03:17:13;12.13;;;4.60;;
17382;SDS011;8809;51.892;8.384;2024-01-27T03:19:40;20.55;;;5.63;;
17382;SDS011;8809;51.892;8.384;2024-01-27T03:22:07;14.90;;;4.93;;
17382;SDS011;8809;51.892;8.384;2024-01-27T03:24:35;14.00;;;4.45;;
17382;SDS011;8809;51.892;8.384;2024-01-27T03:27:03;10.18;;;4.47;;
17382;SDS011;8809;51.892;8.384;2024-01-27T03:29:30;16.50;;;5.00;;
17382;SDS011;8809;51.892;8.384;2024-01-27T03:31:57;11.10;;;4.68;;
17382;SDS011;8809;51.892;8.384;2024-01-27T03:34:25;13.95;;;4.13;;
17382;SDS011;8809;51.892;8.384;2024-01-27T03:36:53;15.50;;;4.75;;
17382;SDS011;8809;51.892;8.384;2024-01-27T03:39:20;12.57;;;4.97;;
17382;SDS011;8809;51.892;8.384;2024-01-27T03:41:47;11.60;;;4.63;;
17382;SDS011;8809;51.892;8.384;2024-01-27T03:44:15;10.05;;;4.55;;
17382;SDS011;8809;51.892;8.384;2024-01-27T03:46:42;18.90;;;5.38;;
17382;SDS011;8809;51.892;8.384;2024-01-27T03:49:09;13.73;;;4.97;;
17382;SDS011;8809;51.892;8.384;2024-01-27T03:51:37;11.63;;;4.05;;
17382;SDS011;8809;51.892;8.384;2024-01-27T03:54:04;8.27;;;3.78;;
17382;SDS011;8809;51.892;8.384;2024-01-27T03:56:31;14.60;;;5.45;;
17382;SDS011;8809;51.892;8.384;2024-01-27T03:58:58;10.88;;;5.13;;
17382;SDS011;8809;51.892;8.384;2024-01-27T04:01:26;12.07;;;4.47;;
17382;SDS011;8809;51.892;8.384;2024-01-27T04:03:53;11.85;;;4.57;;
17382;SDS011;8809;51.892;8.384;2024-01-27T04:06:20;12.38;;;5.28;;
17382;SDS011;8809;51.892;8.384;2024-01-27T04:08:48;14.65;;;4.72;;
17382;SDS011;8809;51.892;8.384;2024-01-27T04:11:18;9.63;;;4.43;;
17382;SDS011;8809;51.892;8.384;2024-01-27T04:13:48;10.07;;;4.18;;
17382;SDS011;8809;51.892;8.384;2024-01-27T04:16:16;7.50;;;3.58;;
17382;SDS011;8809;51.892;8.384;2024-01-27T04:18:43;6.18;;;3.50;;
17382;SDS011;8809;51.892;8.384;2024-01-27T04:21:10;6.53;;;3.15;;
17382;SDS011;8809;51.892;8.384;2024-01-27T04:23:37;12.18;;;3.95;;
17382;SDS011;8809;51.892;8.384;2024-01-27T04:26:06;8.27;;;3.85;;
17382;SDS011;8809;51.892;8.384;2024-01-27T04:28:34;9.32;;;3.80;;
17382;SDS011;8809;51.892;8.384;2024-01-27T04:31:01;7.20;;;3.20;;
17382;SDS011;8809;51.892;8.384;2024-01-27T04:33:28;7.80;;;3.22;;
17382;SDS011;8809;51.892;8.384;2024-01-27T04:35:56;5.30;;;3.00;;
17382;SDS011;8809;51.892;8.384;2024-01-27T04:38:22;7.13;;;3.17;;
17382;SDS011;8809;51.892;8.384;2024-01-27T04:40:50;7.90;;;3.60;;
17382;SDS011;8809;51.892;8.384;2024-01-27T04:43:19;6.40;;;2.97;;
17382;SDS011;8809;51.892;8.384;2024-01-27T04:45:47;5.40;;;3.10;;
17382;SDS011;8809;51.892;8.384;2024-01-27T04:48:14;4.45;;;2.80;;
17382;SDS011;8809;51.892;8.384;2024-01-27T04:50:41;8.95;;;3.67;;
17382;SDS011;8809;51.892;8.384;2024-01-27T04:53:08;7.22;;;3.40;;
17382;SDS011;8809;51.892;8.384;2024-01-27T04:55:35;12.68;;;3.85;;
17382;SDS011;8809;51.892;8.384;2024-01-27T04:58:03;7.10;;;3.30;;
17382;SDS011;8809;51.892;8.384;2024-01-27T05:00:31;8.30;;;2.88;;
17382;SDS011;8809;51.892;8.384;2024-01-27T05:02:58;6.38;;;2.85;;
17382;SDS011;8809;51.892;8.384;2024-01-27T05:05:29;5.70;;;3.10;;
17382;SDS011;8809;51.892;8.384;2024-01-27T05:07:56;6.93;;;3.75;;
17382;SDS011;8809;51.892;8.384;2024-01-27T05:10:23;9.68;;;3.70;;
17382;SDS011;8809;51.892;8.384;2024-01-27T05:12:50;7.03;;;4.03;;
17382;SDS011;8809;51.892;8.384;2024-01-27T05:15:17;5.95;;;3.45;;
17382;SDS011;8809;51.892;8.384;2024-01-27T05:17:46;6.63;;;3.47;;
17382;SDS011;8809;51.892;8.384;2024-01-27T05:20:13;5.88;;;3.13;;
17382;SDS011;8809;51.892;8.384;2024-01-27T05:22:40;6.03;;;3.40;;
17382;SDS011;8809;51.892;8.384;2024-01-27T05:25:08;6.68;;;3.15;;
17382;SDS011;8809;51.892;8.384;2024-01-27T05:27:36;6.18;;;3.13;;
17382;SDS011;8809;51.892;8.384;2024-01-27T05:30:04;8.77;;;3.97;;
17382;SDS011;8809;51.892;8.384;2024-01-27T05:32:31;5.90;;;3.33;;
17382;SDS011;8809;51.892;8.384;2024-01-27T05:34:59;6.25;;;3.50;;
17382;SDS011;8809;51.892;8.384;2024-01-27T05:37:26;4.90;;;3.28;;
17382;SDS011;8809;51.892;8.384;2024-01-27T05:39:54;13.02;;;4.88;;
17382;SDS011;8809;51.892;8.384;2024-01-27T05:42:21;8.00;;;4.30;;
17382;SDS011;8809;51.892;8.384;2024-01-27T05:44:48;12.13;;;5.63;;
17382;SDS011;8809;51.892;8.384;2024-01-27T05:47:15;8.43;;;4.50;;
17382;SDS011;8809;51.892;8.384;2024-01-27T05:49:43;7.25;;;3.92;;
17382;SDS011;8809;51.892;8.384;2024-01-27T05:52:12;8.70;;;3.85;;
17382;SDS011;8809;51.892;8.384;2024-01-27T05:54:39;8.02;;;4.07;;
17382;SDS011;8809;51.892;8.384;2024-01-27T05:57:07;6.93;;;3.75;;
17382;SDS011;8809;51.892;8.384;2024-01-27T05:59:34;6.10;;;3.60;;
17382;SDS011;8809;51.892;8.384;2024-01-27T06:02:01;6.47;;;4.13;;
17382;SDS011;8809;51.892;8.384;2024-01-27T06:04:28;7.43;;;3.70;;
17382;SDS011;8809;51.892;8.384;2024-01-27T06:06:56;6.63;;;3.42;;
17382;SDS011;8809;51.892;8.384;2024-01-27T06:09:25;4.32;;;3.33;;
17382;SDS011;8809;51.892;8.384;2024-01-27T06:11:52;8.57;;;3.67;;
17382;SDS011;8809;51.892;8.384;2024-01-27T06:14:19;5.18;;;3.75;;
17382;SDS011;8809;51.892;8.384;2024-01-27T06:16:46;7.43;;;4.13;;
17382;SDS011;8809;51.892;8.384;2024-01-27T06:19:13;6.72;;;4.28;;
17382;SDS011;8809;51.892;8.384;2024-01-27T06:21:40;11.82;;;5.88;;
17382;SDS011;8809;51.892;8.384;2024-01-27T06:24:07;8.13;;;5.05;;
17382;SDS011;8809;51.892;8.384;2024-01-27T06:26:36;10.75;;;4.55;;
17382;SDS011;8809;51.892;8.384;2024-01-27T06:29:03;7.93;;;4.60;;
17382;SDS011;8809;51.892;8.384;2024-01-27T06:31:30;6.40;;;4.43;;
17382;SDS011;8809;51.892;8.384;2024-01-27T06:33:57;6.95;;;3.88;;
17382;SDS011;8809;51.892;8.384;2024-01-27T06:36:24;7.90;;;4.32;;
17382;SDS011;8809;51.892;8.384;2024-01-27T06:38:52;7.95;;;4.10;;
17382;SDS011;8809;51.892;8.384;2024-01-27T06:41:19;6.95;;;4.30;;
17382;SDS011;8809;51.892;8.384;2024-01-27T06:43:48;7.85;;;4.10;;
17382;SDS011;8809;51.892;8.384;2024-01-27T06:46:15;9.88;;;5.03;;
17382;SDS011;8809;51.892;8.384;2024-01-27T06:48:42;8.05;;;4.95;;
17382;SDS011;8809;51.892;8.384;2024-01-27T06:51:09;8.55;;;4.80;;
17382;SDS011;8809;51.892;8.384;2024-01-27T06:53:36;9.20;;;4.88;;
17382;SDS011;8809;51.892;8.384;2024-01-27T06:56:04;8.55;;;4.80;;
17382;SDS011;8809;51.892;8.384;2024-01-27T06:58:31;10.43;;;5.18;;
17382;SDS011;8809;51.892;8.384;2024-01-27T07:00:59;9.18;;;4.60;;
17382;SDS011;8809;51.892;8.384;2024-01-27T07:03:26;7.10;;;4.13;;
17382;SDS011;8809;51.892;8.384;2024-01-27T07:05:53;8.82;;;4.50;;
17382;SDS011;8809;51.892;8.384;2024-01-27T07:08:20;7.60;;;4.35;;
17382;SDS011;8809;51.892;8.384;2024-01-27T07:10:47;8.13;;;4.60;;
17382;SDS011;8809;51.892;8.384;2024-01-27T07:13:14;10.77;;;4.43;;
17382;SDS011;8809;51.892;8.384;2024-01-27T07:15:41;9.57;;;5.00;;
17382;SDS011;8809;51.892;8.384;2024-01-27T07:18:10;9.48;;;4.50;;
17382;SDS011;8809;51.892;8.384;2024-01-27T07:20:37;9.32;;;5.00;;
17382;SDS011;8809;51.892;8.384;2024-01-27T07:23:04;7.18;;;4.78;;
17382;SDS011;8809;51.892;8.384;2024-01-27T07:25:31;7.20;;;5.03;;
17382;SDS011;8809;51.892;8.384;2024-01-27T07:27:58;7.28;;;4.15;;
17382;SDS011;8809;51.892;8.384;2024-01-27T07:30:25;8.07;;;5.10;;
17382;SDS011;8809;51.892;8.384;2024-01-27T07:32:52;6.28;;;4.65;;
17382;SDS011;8809;51.892;8.384;2024-01-27T07:35:20;6.60;;;5.00;;
17382;SDS011;8809;51.892;8.384;2024-01-27T07:37:47;8.68;;;4.57;;
17382;SDS011;8809;51.892;8.384;2024-01-27T07:40:15;8.00;;;4.35;;
17382;SDS011;8809;51.892;8.384;2024-01-27T07:42:42;8.95;;;4.75;;
17382;SDS011;8809;51.892;8.384;2024-01-27T07:45:09;6.47;;;3.97;;
17382;SDS011;8809;51.892;8.384;2024-01-27T07:47:36;6.47;;;4.68;;
17382;SDS011;8809;51.892;8.384;2024-01-27T07:50:03;6.32;;;4.57;;
17382;SDS011;8809;51.892;8.384;2024-01-27T07:52:32;7.05;;;4.68;;
17382;SDS011;8809;51.892;8.384;2024-01-27T07:54:59;5.70;;;4.03;;
17382;SDS011;8809;51.892;8.384;2024-01-27T07:57:27;5.57;;;4.30;;
17382;SDS011;8809;51.892;8.384;2024-01-27T07:59:54;7.97;;;4.32;;
17382;SDS011;8809;51.892;8.384;2024-01-27T08:02:21;7.82;;;4.43;;
17382;SDS011;8809;51.892;8.384;2024-01-27T08:04:48;7.25;;;4.93;;
17382;SDS011;8809;51.892;8.384;2024-01-27T08:07:15;7.25;;;4.78;;
17382;SDS011;8809;51.892;8.384;2024-01-27T08:09:43;6.20;;;4.38;;
17382;SDS011;8809;51.892;8.384;2024-01-27T08:12:11;11.15;;;5.07;;
17382;SDS011;8809;51.892;8.384;2024-01-27T08:14:39;8.05;;;5.13;;
17382;SDS011;8809;51.892;8.384;2024-01-27T08:17:06;12.73;;;6.03;;
17382;SDS011;8809;51.892;8.384;2024-01-27T08:19:33;7.38;;;4.50;;
17382;SDS011;8809;51.892;8.384;2024-01-27T08:22:00;7.00;;;4.57;;
17382;SDS011;8809;51.892;8.384;2024-01-27T08:24:27;9.07;;;4.78;;
17382;SDS011;8809;51.892;8.384;2024-01-27T08:26:56;9.13;;;5.53;;
17382;SDS011;8809;51.892;8.384;2024-01-27T08:29:23;14.27;;;7.60;;
17382;SDS011;8809;51.892;8.384;2024-01-27T08:31:50;11.60;;;7.25;;
17382;SDS011;8809;51.892;8.384;2024-01-27T08:34:17;14.13;;;7.40;;
17382;SDS011;8809;51.892;8.384;2024-01-27T08:36:44;15.20;;;8.48;;
17382;SDS011;8809;51.892;8.384;2024-01-27T08:39:11;18.95;;;8.70;;
17382;SDS011;8809;51.892;8.384;2024-01-27T08:41:39;15.32;;;7.10;;
17382;SDS011;8809;51.892;8.384;2024-01-27T08:44:07;17.73;;;9.40;;
17382;SDS011;8809;51.892;8.384;2024-01-27T08:46:34;14.73;;;7.90;;
17382;SDS011;8809;51.892;8.384;2024-01-27T08:49:01;19.70;;;7.95;;
17382;SDS011;8809;51.892;8.384;2024-01-27T08:51:28;11.93;;;7.38;;
17382;SDS011;8809;51.892;8.384;2024-01-27T08:53:55;21.08;;;10.25;;
17382;SDS011;8809;51.892;8.384;2024-01-27T08:56:22;27.20;;;11.02;;
17382;SDS011;8809;51.892;8.384;2024-01-27T08:58:49;20.63;;;10.85;;
17382;SDS011;8809;51.892;8.384;2024-01-27T09:01:19;22.70;;;9.65;;
17382;SDS011;8809;51.892;8.384;2024-01-27T09:03:46;19.27;;;10.38;;
17382;SDS011;8809;51.892;8.384;2024-01-27T09:06:13;21.92;;;9.88;;
17382;SDS011;8809;51.892;8.384;2024-01-27T09:08:40;24.48;;;10.25;;
17382;SDS011;8809;51.892;8.384;2024-01-27T09:11:07;20.30;;;9.38;;
17382;SDS011;8809;51.892;8.384;2024-01-27T09:13:35;20.65;;;8.93;;
17382;SDS011;8809;51.892;8.384;2024-01-27T09:16:02;17.08;;;9.82;;
17382;SDS011;8809;51.892;8.384;2024-01-27T09:18:31;25.00;;;9.18;;
17382;SDS011;8809;51.892;8.384;2024-01-27T09:20:58;18.90;;;9.25;;
17382;SDS011;8809;51.892;8.384;2024-01-27T09:23:25;17.50;;;8.68;;
17382;SDS011;8809;51.892;8.384;2024-01-27T09:25:52;20.92;;;9.43;;
17382;SDS011;8809;51.892;8.384;2024-01-27T09:28:19;19.67;;;8.65;;
17382;SDS011;8809;51.892;8.384;2024-01-27T09:30:46;23.50;;;8.95;;
17382;SDS011;8809;51.892;8.384;2024-01-27T09:33:14;18.35;;;8.02;;
17382;SDS011;8809;51.892;8.384;2024-01-27T09:35:44;19.75;;;9.20;;
17382;SDS011;8809;51.892;8.384;2024-01-27T09:38:11;27.83;;;9.88;;
17382;SDS011;8809;51.892;8.384;2024-01-27T09:40:39;20.88;;;8.68;;
17382;SDS011;8809;51.892;8.384;2024-01-27T09:43:07;18.35;;;8.60;;
17382;SDS011;8809;51.892;8.384;2024-01-27T09:45:39;19.98;;;8.38;;
17382;SDS011;8809;51.892;8.384;2024-01-27T09:48:07;13.65;;;8.10;;
17382;SDS011;8809;51.892;8.384;2024-01-27T09:50:37;18.40;;;8.25;;
17382;SDS011;8809;51.892;8.384;2024-01-27T09:53:09;19.67;;;8.02;;
17382;SDS011;8809;51.892;8.384;2024-01-27T09:55:37;16.98;;;6.65;;
17382;SDS011;8809;51.892;8.384;2024-01-27T09:58:04;16.48;;;7.57;;
17382;SDS011;8809;51.892;8.384;2024-01-27T10:00:33;19.63;;;7.82;;
17382;SDS011;8809;51.892;8.384;2024-01-27T10:03:01;17.15;;;7.30;;
17382;SDS011;8809;51.892;8.384;2024-01-27T10:05:31;22.35;;;7.32;;
17382;SDS011;8809;51.892;8.384;2024-01-27T10:07:59;14.93;;;6.63;;
17382;SDS011;8809;51.892;8.384;2024-01-27T10:10:27;13.30;;;6.45;;
17382;SDS011;8809;51.892;8.384;2024-01-27T10:12:54;18.00;;;7.03;;
17382;SDS011;8809;51.892;8.384;2024-01-27T10:15:25;16.40;;;6.35;;
17382;SDS011;8809;51.892;8.384;2024-01-27T10:17:52;15.95;;;6.43;;
17382;SDS011;8809;51.892;8.384;2024-01-27T10:20:19;16.38;;;6.50;;
17382;SDS011;8809;51.892;8.384;2024-01-27T10:22:47;13.73;;;5.45;;
17382;SDS011;8809;51.892;8.384;2024-01-27T10:25:14;13.15;;;6.13;;
17382;SDS011;8809;51.892;8.384;2024-01-27T10:27:43;14.05;;;6.05;;
17382;SDS011;8809;51.892;8.384;2024-01-27T10:30:14;16.10;;;6.18;;
17382;SDS011;8809;51.892;8.384;2024-01-27T10:32:43;13.65;;;6.20;;
17382;SDS011;8809;51.892;8.384;2024-01-27T10:35:21;11.50;;;5.30;;
17382;SDS011;8809;51.892;8.384;2024-01-27T10:37:51;13.20;;;5.70;;
17382;SDS011;8809;51.892;8.384;2024-01-27T10:40:19;10.82;;;5.57;;
17382;SDS011;8809;51.892;8.384;2024-01-27T10:42:47;13.95;;;5.25;;
17382;SDS011;8809;51.892;8.384;2024-01-27T10:45:26;12.75;;;5.13;;
17382;SDS011;8809;51.892;8.384;2024-01-27T10:47:55;19.05;;;6.82;;
17382;SDS011;8809;51.892;8.384;2024-01-27T10:50:28;17.60;;;5.95;;
17382;SDS011;8809;51.892;8.384;2024-01-27T10:52:57;9.60;;;4.93;;
17382;SDS011;8809;51.892;8.384;2024-01-27T10:55:25;18.30;;;5.40;;
17382;SDS011;8809;51.892;8.384;2024-01-27T10:57:54;16.67;;;5.30;;
17382;SDS011;8809;51.892;8.384;2024-01-27T11:00:22;14.93;;;5.03;;
17382;SDS011;8809;51.892;8.384;2024-01-27T11:02:51;12.55;;;5.10;;
17382;SDS011;8809;51.892;8.384;2024-01-27T11:05:20;13.40;;;4.95;;
17382;SDS011;8809;51.892;8.384;2024-01-27T11:07:49;13.05;;;5.50;;
17382;SDS011;8809;51.892;8.384;2024-01-27T11:10:17;12.63;;;4.40;;
17382;SDS011;8809;51.892;8.384;2024-01-27T11:12:44;12.75;;;4.80;;
17382;SDS011;8809;51.892;8.384;2024-01-27T11:15:15;12.77;;;4.60;;
17382;SDS011;8809;51.892;8.384;2024-01-27T11:17:42;8.82;;;3.60;;
17382;SDS011;8809;51.892;8.384;2024-01-27T11:20:11;13.75;;;5.20;;
17382;SDS011;8809;51.892;8.384;2024-01-27T11:22:38;11.43;;;5.18;;
17382;SDS011;8809;51.892;8.384;2024-01-27T11:25:08;10.25;;;4.53;;
17382;SDS011;8809;51.892;8.384;2024-01-27T11:27:42;12.82;;;4.40;;
17382;SDS011;8809;51.892;8.384;2024-01-27T11:30:25;10.48;;;4.43;;
17382;SDS011;8809;51.892;8.384;2024-01-27T11:32:54;13.98;;;4.72;;
17382;SDS011;8809;51.892;8.384;2024-01-27T11:35:22;10.02;;;4.10;;
17382;SDS011;8809;51.892;8.384;2024-01-27T11:37:50;10.95;;;4.13;;
17382;SDS011;8809;51.892;8.384;2024-01-27T11:40:17;13.40;;;4.78;;
17382;SDS011;8809;51.892;8.384;2024-01-27T11:42:53;10.00;;;3.88;;
17382;SDS011;8809;51.892;8.384;2024-01-27T11:45:21;10.07;;;3.72;;
17382;SDS011;8809;51.892;8.384;2024-01-27T11:47:49;18.38;;;5.53;;
17382;SDS011;8809;51.892;8.384;2024-01-27T11:50:17;13.45;;;4.72;;
17382;SDS011;8809;51.892;8.384;2024-01-27T11:52:44;12.35;;;4.50;;
17382;SDS011;8809;51.892;8.384;2024-01-27T11:55:12;12.00;;;4.30;;
17382;SDS011;8809;51.892;8.384;2024-01-27T11:57:40;9.40;;;3.97;;
17382;SDS011;8809;51.892;8.384;2024-01-27T12:00:08;16.95;;;4.55;;
17382;SDS011;8809;51.892;8.384;2024-01-27T12:02:36;12.93;;;4.70;;
17382;SDS011;8809;51.892;8.384;2024-01-27T12:05:06;15.35;;;4.07;;
17382;SDS011;8809;51.892;8.384;2024-01-27T12:07:34;11.38;;;3.83;;
17382;SDS011;8809;51.892;8.384;2024-01-27T12:10:01;10.90;;;4.05;;
17382;SDS011;8809;51.892;8.384;2024-01-27T12:12:29;9.73;;;3.55;;
17382;SDS011;8809;51.892;8.384;2024-01-27T12:14:56;9.65;;;3.28;;
17382;SDS011;8809;51.892;8.384;2024-01-27T12:17:25;18.55;;;4.30;;
17382;SDS011;8809;51.892;8.384;2024-01-27T12:19:52;9.20;;;3.20;;
17382;SDS011;8809;51.892;8.384;2024-01-27T12:22:24;12.90;;;3.97;;
17382;SDS011;8809;51.892;8.384;2024-01-27T12:24:52;10.93;;;3.47;;
17382;SDS011;8809;51.892;8.384;2024-01-27T12:27:19;8.98;;;3.42;;
17382;SDS011;8809;51.892;8.384;2024-01-27T12:29:47;11.38;;;4.47;;
17382;SDS011;8809;51.892;8.384;2024-01-27T12:32:15;12.73;;;3.97;;
17382;SDS011;8809;51.892;8.384;2024-01-27T12:34:44;6.88;;;3.30;;
17382;SDS011;8809;51.892;8.384;2024-01-27T12:37:13;6.28;;;2.65;;
17382;SDS011;8809;51.892;8.384;2024-01-27T12:39:44;11.50;;;3.90;;
17382;SDS011;8809;51.892;8.384;2024-01-27T12:42:12;10.02;;;3.13;;
17382;SDS011;8809;51.892;8.384;2024-01-27T12:44:39;8.60;;;3.13;;
17382;SDS011;8809;51.892;8.384;2024-01-27T12:47:06;8.77;;;2.95;;
17382;SDS011;8809;51.892;8.384;2024-01-27T12:49:34;6.45;;;3.00;;
17382;SDS011;8809;51.892;8.384;2024-01-27T12:52:01;10.50;;;2.97;;
17382;SDS011;8809;51.892;8.384;2024-01-27T12:54:28;8.90;;;3.72;;
17382;SDS011;8809;51.892;8.384;2024-01-27T12:56:57;10.48;;;3.38;;
17382;SDS011;8809;51.892;8.384;2024-01-27T12:59:25;7.88;;;2.80;;
17382;SDS011;8809;51.892;8.384;2024-01-27T13:01:52;10.25;;;3.38;;
17382;SDS011;8809;51.892;8.384;2024-01-27T13:04:20;5.68;;;2.63;;
17382;SDS011;8809;51.892;8.384;2024-01-27T13:06:48;9.55;;;3.60;;
17382;SDS011;8809;51.892;8.384;2024-01-27T13:09:16;12.73;;;3.70;;
17382;SDS011;8809;51.892;8.384;2024-01-27T13:11:43;9.27;;;3.08;;
17382;SDS011;8809;51.892;8.384;2024-01-27T13:14:12;9.15;;;3.65;;
17382;SDS011;8809;51.892;8.384;2024-01-27T13:16:39;7.95;;;3.08;;
17382;SDS011;8809;51.892;8.384;2024-01-27T13:19:06;7.40;;;2.90;;
17382;SDS011;8809;51.892;8.384;2024-01-27T13:21:33;9.32;;;3.70;;
17382;SDS011;8809;51.892;8.384;2024-01-27T13:24:01;9.38;;;3.72;;
17382;SDS011;8809;51.892;8.384;2024-01-27T13:26:28;9.05;;;3.60;;
17382;SDS011;8809;51.892;8.384;2024-01-27T13:28:57;10.30;;;3.60;;
17382;SDS011;8809;51.892;8.384;2024-01-27T13:31:25;11.23;;;3.45;;
17382;SDS011;8809;51.892;8.384;2024-01-27T13:33:52;8.43;;;3.35;;
17382;SDS011;8809;51.892;8.384;2024-01-27T13:36:20;9.05;;;3.50;;
17382;SDS011;8809;51.892;8.384;2024-01-27T13:38:47;8.27;;;3.28;;
17382;SDS011;8809;51.892;8.384;2024-01-27T13:41:14;9.98;;;3.35;;
17382;SDS011;8809;51.892;8.384;2024-01-27T13:43:41;10.75;;;4.25;;
17382;SDS011;8809;51.892;8.384;2024-01-27T13:46:09;9.35;;;3.45;;
17382;SDS011;8809;51.892;8.384;2024-01-27T13:48:38;7.38;;;2.50;;
17382;SDS011;8809;51.892;8.384;2024-01-27T13:51:05;4.90;;;2.70;;
17382;SDS011;8809;51.892;8.384;2024-01-27T13:53:33;7.57;;;3.15;;
17382;SDS011;8809;51.892;8.384;2024-01-27T13:56:00;10.73;;;3.78;;
17382;SDS011;8809;51.892;8.384;2024-01-27T13:58:27;8.38;;;2.72;;
17382;SDS011;8809;51.892;8.384;2024-01-27T14:00:55;8.55;;;2.60;;
17382;SDS011;8809;51.892;8.384;2024-01-27T14:03:22;8.75;;;2.85;;
17382;SDS011;8809;51.892;8.384;2024-01-27T14:05:50;8.98;;;3.03;;
17382;SDS011;8809;51.892;8.384;2024-01-27T14:08:18;8.30;;;2.65;;
17382;SDS011;8809;51.892;8.384;2024-01-27T14:10:45;7.45;;;3.25;;
17382;SDS011;8809;51.892;8.384;2024-01-27T14:13:14;6.85;;;3.15;;
17382;SDS011;8809;51.892;8.384;2024-01-27T14:15:41;6.80;;;2.17;;
17382;SDS011;8809;51.892;8.384;2024-01-27T14:18:09;6.75;;;2.70;;
17382;SDS011;8809;51.892;8.384;2024-01-27T14:20:39;6.55;;;2.60;;
17382;SDS011;8809;51.892;8.384;2024-01-27T14:23:12;8.93;;;2.67;;
17382;SDS011;8809;51.892;8.384;2024-01-27T14:25:39;7.65;;;2.30;;
17382;SDS011;8809;51.892;8.384;2024-01-27T14:28:06;4.75;;;1.95;;
17382;SDS011;8809;51.892;8.384;2024-01-27T14:30:35;8.88;;;2.70;;
17382;SDS011;8809;51.892;8.384;2024-01-27T14:33:02;7.13;;;2.63;;
17382;SDS011;8809;51.892;8.384;2024-01-27T14:35:29;11.40;;;3.30;;
17382;SDS011;8809;51.892;8.384;2024-01-27T14:37:56;7.55;;;2.53;;
17382;SDS011;8809;51.892;8.384;2024-01-27T14:40:27;6.20;;;2.40;;
17382;SDS011;8809;51.892;8.384;2024-01-27T14:42:54;9.57;;;2.58;;
17382;SDS011;8809;51.892;8.384;2024-01-27T14:45:21;7.55;;;2.67;;
17382;SDS011;8809;51.892;8.384;2024-01-27T14:47:48;9.45;;;2.72;;
17382;SDS011;8809;51.892;8.384;2024-01-27T14:50:16;8.55;;;2.80;;
17382;SDS011;8809;51.892;8.384;2024-01-27T14:52:43;9.20;;;2.85;;
17382;SDS011;8809;51.892;8.384;2024-01-27T14:55:10;8.95;;;2.75;;